Time;durP1;ratioP1;P1;durP2;ratioP2;P2;SDS_P1;SDS_P2;PMS_P1;PMS_P2;Temp;Humidity;BMP_temperature;BMP_pressure;BME280_temperature;BME280_humidity;BME280_pressure;Samples;Min_cycle;Max_cycle;Signal;HPM_P1;HPM_P2
2023/09/01 00:01:33;;;;;;;1999.90;999.90;;;10.30;99.90;;;;;;5051293;28;20079;-70
2023/09/01 00:03:58;;;;;;;1999.90;999.90;;;10.30;99.90;;;;;;5047940;28;20052;-70
2023/09/01 00:06:24;;;;;;;1999.90;999.90;;;10.30;99.90;;;;;;5054065;28;20597;-70
2023/09/01 00:08:50;;;;;;;1999.90;999.90;;;10.30;99.90;;;;;;5054837;28;20125;-70
2023/09/01 00:11:15;;;;;;;1999.90;999.90;;;10.30;99.90;;;;;;5028811;28;20042;-70
2023/09/01 00:13:41;;;;;;;1999.90;999.90;;;10.30;99.90;;;;;;5046813;28;20033;-70
2023/09/01 00:16:07;;;;;;;1999.90;999.90;;;10.30;99.90;;;;;;5039351;28;20037;-70
2023/09/01 00:18:33;;;;;;;1999.90;999.90;;;10.30;99.90;;;;;;5036988;28;20516;-70
2023/09/01 00:21:00;;;;;;;1999.90;999.90;;;10.30;99.90;;;;;;5051286;28;20041;-70
2023/09/01 00:23:26;;;;;;;1999.90;999.90;;;10.20;99.90;;;;;;5054544;28;20041;-70
2023/09/01 00:25:53;;;;;;;1999.90;999.90;;;10.10;99.90;;;;;;5049208;28;20128;-70
2023/09/01 00:28:19;;;;;;;1999.90;999.90;;;10.10;99.90;;;;;;5057463;28;20059;-70
2023/09/01 00:30:53;;;;;;;1999.90;999.90;;;10.10;99.90;;;;;;5055633;28;20131;-70
2023/09/01 00:33:19;;;;;;;1999.90;999.90;;;10.00;99.90;;;;;;5045117;28;20572;-70
2023/09/01 00:35:44;;;;;;;1999.90;999.90;;;10.00;99.90;;;;;;5064430;28;20068;-70
2023/09/01 00:38:10;;;;;;;1999.90;999.90;;;10.00;99.90;;;;;;5056389;28;20128;-70
2023/09/01 00:40:35;;;;;;;1999.90;999.90;;;9.90;99.90;;;;;;5056395;28;20044;-70
2023/09/01 00:43:01;;;;;;;1999.90;999.90;;;9.90;99.90;;;;;;5031886;28;20041;-70
2023/09/01 00:45:27;;;;;;;1999.90;999.90;;;9.90;99.90;;;;;;5046933;28;20041;-70
2023/09/01 00:47:53;;;;;;;1999.90;999.90;;;9.90;99.90;;;;;;5030410;28;20498;-70
2023/09/01 00:50:19;;;;;;;1999.90;999.90;;;9.90;99.90;;;;;;5048525;28;20033;-70
2023/09/01 00:52:45;;;;;;;1999.90;999.90;;;9.80;99.90;;;;;;5044872;28;20477;-70
2023/09/01 00:55:11;;;;;;;1999.90;999.90;;;9.80;99.90;;;;;;5051339;28;20125;-70
2023/09/01 00:57:37;;;;;;;1999.90;999.90;;;9.90;99.90;;;;;;5050789;28;20032;-70
2023/09/01 01:00:05;;;;;;;1999.90;999.90;;;9.80;99.90;;;;;;5051418;28;20067;-70
2023/09/01 01:02:31;;;;;;;1999.90;999.90;;;9.80;99.90;;;;;;5049392;28;20037;-70
2023/09/01 01:04:57;;;;;;;1999.90;999.90;;;9.80;99.90;;;;;;5034601;28;20053;-70
2023/09/01 01:07:28;;;;;;;1999.90;999.90;;;9.80;99.90;;;;;;5055587;28;20182;-70
2023/09/01 01:10:01;;;;;;;1999.90;999.90;;;9.80;99.90;;;;;;5064695;28;20048;-69
2023/09/01 01:12:57;;;;;;;1999.90;999.90;;;9.80;99.90;;;;;;5052583;28;20491;-70
2023/09/01 01:15:25;;;;;;;1999.90;999.90;;;9.80;99.90;;;;;;5045415;28;20102;-70
2023/09/01 01:17:51;;;;;;;1999.90;999.90;;;9.80;99.90;;;;;;5032935;28;20039;-70
2023/09/01 01:20:28;;;;;;;1999.90;999.90;;;9.80;99.90;;;;;;5060589;28;20476;-70
2023/09/01 01:23:17;;;;;;;1999.90;999.90;;;9.80;99.90;;;;;;5053989;28;20058;-70
2023/09/01 01:25:52;;;;;;;1999.90;999.90;;;9.80;99.90;;;;;;5038961;28;20103;-70
2023/09/01 01:28:19;;;;;;;1999.90;999.90;;;9.80;99.90;;;;;;5054498;28;20080;-70
2023/09/01 01:30:55;;;;;;;1999.90;999.90;;;9.70;99.90;;;;;;5035400;28;20045;-70
2023/09/01 01:33:47;;;;;;;1999.90;999.90;;;9.70;99.90;;;;;;5037370;28;20113;-70
2023/09/01 01:36:21;;;;;;;1999.90;999.90;;;9.70;99.90;;;;;;5050546;28;20414;-70
2023/09/01 01:38:58;;;;;;;1999.90;999.90;;;9.70;99.90;;;;;;5034129;28;20836;-70
2023/09/01 01:41:53;;;;;;;1999.90;999.90;;;9.70;99.90;;;;;;5065804;28;20400;-70
2023/09/01 01:44:29;;;;;;;1999.90;999.90;;;9.70;99.90;;;;;;5049747;28;20393;-70
2023/09/01 01:46:56;;;;;;;1999.90;999.90;;;9.60;99.90;;;;;;5051047;28;20044;-70
2023/09/01 01:49:21;;;;;;;1999.90;999.90;;;9.60;99.90;;;;;;5046655;28;20068;-70
2023/09/01 01:51:47;;;;;;;1999.90;999.90;;;9.60;99.90;;;;;;5033101;28;20060;-70
2023/09/01 01:54:12;;;;;;;1999.90;999.90;;;9.60;99.90;;;;;;5063471;28;20377;-70
2023/09/01 01:56:38;;;;;;;1999.90;999.90;;;9.60;99.90;;;;;;5055568;28;20037;-70
2023/09/01 01:59:04;;;;;;;1999.90;999.90;;;9.60;99.90;;;;;;5051059;28;20045;-69
2023/09/01 02:01:33;;;;;;;1999.90;999.90;;;9.60;99.90;;;;;;5029993;28;20048;-70
2023/09/01 02:03:59;;;;;;;1999.90;999.90;;;9.60;99.90;;;;;;5038449;28;20048;-70
2023/09/01 02:06:24;;;;;;;1999.90;999.90;;;9.70;99.90;;;;;;5051537;28;20064;-70
2023/09/01 02:08:50;;;;;;;1999.90;999.90;;;9.70;99.90;;;;;;5031914;28;20128;-70
2023/09/01 02:11:16;;;;;;;1999.90;999.90;;;9.70;99.90;;;;;;5052833;28;20400;-70
2023/09/01 02:13:42;;;;;;;1999.90;999.90;;;9.70;99.90;;;;;;5050898;28;20029;-70
2023/09/01 02:16:08;;;;;;;1999.90;999.90;;;9.70;99.90;;;;;;5041955;28;20044;-70
2023/09/01 02:18:33;;;;;;;1999.90;999.90;;;9.60;99.90;;;;;;5055567;28;20044;-70
2023/09/01 02:21:00;;;;;;;1999.90;999.90;;;9.60;99.90;;;;;;5036048;28;20102;-70
2023/09/01 02:23:25;;;;;;;1999.90;999.90;;;9.50;99.90;;;;;;5054608;28;20481;-70
2023/09/01 02:25:51;;;;;;;1999.90;999.90;;;9.50;99.90;;;;;;5053898;28;20105;-70
2023/09/01 02:28:17;;;;;;;1999.90;999.90;;;9.50;99.90;;;;;;5051103;28;20045;-69
2023/09/01 02:30:42;;;;;;;1999.90;999.90;;;9.40;99.90;;;;;;5048602;28;20107;-70
2023/09/01 02:33:08;;;;;;;1999.90;999.90;;;9.40;99.90;;;;;;5032207;28;20044;-70
2023/09/01 02:35:42;;;;;;;1999.90;999.90;;;9.30;99.90;;;;;;5047567;28;20037;-70
2023/09/01 02:38:08;;;;;;;1999.90;999.90;;;9.30;99.90;;;;;;5048558;28;20120;-70
2023/09/01 02:40:33;;;;;;;1999.90;999.90;;;9.30;99.90;;;;;;5063908;28;20127;-70
2023/09/01 02:42:59;;;;;;;1999.90;999.90;;;9.20;99.90;;;;;;5033724;28;20036;-70
2023/09/01 02:45:24;;;;;;;1999.90;999.90;;;9.30;99.90;;;;;;5034632;28;20115;-69
2023/09/01 02:47:50;;;;;;;1999.90;999.90;;;9.30;99.90;;;;;;5054721;28;20044;-69
2023/09/01 02:50:16;;;;;;;1999.90;999.90;;;9.20;99.90;;;;;;5056176;28;20065;-69
2023/09/01 02:52:42;;;;;;;1999.90;999.90;;;9.20;99.90;;;;;;5044893;28;20045;-69
2023/09/01 02:55:08;;;;;;;1999.90;999.90;;;9.20;99.90;;;;;;5048845;28;20044;-70
2023/09/01 02:57:35;;;;;;;1999.90;999.90;;;9.10;99.90;;;;;;5065163;28;20037;-69
2023/09/01 03:00:01;;;;;;;1999.90;999.90;;;9.10;99.90;;;;;;5065309;28;20055;-69
2023/09/01 03:02:28;;;;;;;1999.90;999.90;;;9.10;99.90;;;;;;5048759;28;20048;-70
2023/09/01 03:04:55;;;;;;;1999.90;999.90;;;9.10;99.90;;;;;;5048801;28;20053;-69
2023/09/01 03:07:21;;;;;;;1999.90;999.90;;;9.10;99.90;;;;;;5054108;28;20052;-69
2023/09/01 03:09:47;;;;;;;1999.90;999.90;;;9.10;99.90;;;;;;5051175;28;20037;-69
2023/09/01 03:12:13;;;;;;;1999.90;999.90;;;9.10;99.90;;;;;;5045917;28;20124;-69
2023/09/01 03:14:39;;;;;;;1999.90;999.90;;;9.10;99.90;;;;;;5054104;28;20469;-69
2023/09/01 03:17:05;;;;;;;1999.90;999.90;;;9.00;99.90;;;;;;5045257;28;20116;-69
2023/09/01 03:19:32;;;;;;;1999.90;999.90;;;9.00;99.90;;;;;;5055874;28;20132;-69
2023/09/01 03:21:57;;;;;;;1999.90;999.90;;;9.00;99.90;;;;;;5054987;28;20123;-69
2023/09/01 03:24:23;;;;;;;1999.90;999.90;;;8.90;99.90;;;;;;5050970;28;20547;-69
2023/09/01 03:26:48;;;;;;;1999.90;999.90;;;8.90;99.90;;;;;;5030196;28;20049;-69
2023/09/01 03:29:14;;;;;;;1999.90;999.90;;;8.90;99.90;;;;;;5049092;28;20099;-69
2023/09/01 03:31:39;;;;;;;1999.90;999.90;;;8.90;99.90;;;;;;5048526;28;20120;-69
2023/09/01 03:34:07;;;;;;;1999.90;999.90;;;8.80;99.90;;;;;;5034706;28;20037;-69
2023/09/01 03:36:32;;;;;;;1999.90;999.90;;;8.80;99.90;;;;;;5049855;28;20049;-69
2023/09/01 03:38:59;;;;;;;1999.90;999.90;;;8.90;99.90;;;;;;5030378;28;20045;-69
2023/09/01 03:41:25;;;;;;;1999.90;999.90;;;8.80;99.90;;;;;;5051766;28;20044;-69
2023/09/01 03:43:51;;;;;;;1999.90;999.90;;;8.80;99.90;;;;;;5036880;28;20043;-69
2023/09/01 03:46:16;;;;;;;1999.90;999.90;;;8.80;99.90;;;;;;5052247;28;20048;-69
2023/09/01 03:48:42;;;;;;;1999.90;999.90;;;8.80;99.90;;;;;;5047153;28;20037;-69
2023/09/01 03:51:16;;;;;;;1999.90;999.90;;;8.70;99.90;;;;;;5050533;28;20120;-69
2023/09/01 03:53:42;;;;;;;1999.90;999.90;;;8.70;99.90;;;;;;5050339;28;20444;-69
2023/09/01 03:56:17;;;;;;;1999.90;999.90;;;8.70;99.90;;;;;;5045999;28;20047;-69
2023/09/01 03:58:43;;;;;;;1999.90;999.90;;;8.70;99.90;;;;;;5048112;28;20033;-69
2023/09/01 04:01:11;;;;;;;1999.90;999.90;;;8.70;99.90;;;;;;5046054;28;20032;-69
2023/09/01 04:03:44;;;;;;;1999.90;999.90;;;8.70;99.90;;;;;;5050603;28;20044;-69
2023/09/01 04:06:10;;;;;;;1999.90;999.90;;;8.70;99.90;;;;;;5049115;28;20056;-70
2023/09/01 04:08:37;;;;;;;1999.90;999.90;;;8.70;99.90;;;;;;5048796;28;20047;-70
2023/09/01 04:11:03;;;;;;;1999.90;999.90;;;8.70;99.90;;;;;;5040950;28;20558;-70
2023/09/01 04:13:29;;;;;;;1999.90;999.90;;;8.60;99.90;;;;;;5047537;28;20128;-70
2023/09/01 04:15:55;;;;;;;1999.90;999.90;;;8.60;99.90;;;;;;5053989;28;20048;-69
2023/09/01 04:18:22;;;;;;;1999.90;999.90;;;8.60;99.90;;;;;;5051096;28;20083;-69
2023/09/01 04:20:49;;;;;;;1999.90;999.90;;;8.60;99.90;;;;;;5049351;28;20040;-69
2023/09/01 04:23:15;;;;;;;1999.90;999.90;;;8.50;99.90;;;;;;5047479;28;20045;-70
2023/09/01 04:25:43;;;;;;;1999.90;999.90;;;8.50;99.90;;;;;;5035378;28;20378;-70
2023/09/01 04:28:09;;;;;;;1999.90;999.90;;;8.50;99.90;;;;;;5037065;28;20045;-70
2023/09/01 04:30:36;;;;;;;1999.90;999.90;;;8.50;99.90;;;;;;5052171;28;20075;-70
2023/09/01 04:33:05;;;;;;;1999.90;999.90;;;8.50;99.90;;;;;;5056438;28;20049;-69
2023/09/01 04:35:32;;;;;;;1999.90;999.90;;;8.40;99.90;;;;;;5054872;28;20131;-69
2023/09/01 04:37:57;;;;;;;1999.90;999.90;;;8.40;99.90;;;;;;5068722;28;20036;-70
2023/09/01 04:40:23;;;;;;;1999.90;999.90;;;8.40;99.90;;;;;;5064881;28;20047;-69
2023/09/01 04:42:48;;;;;;;1999.90;999.90;;;8.40;99.90;;;;;;5071139;28;20477;-70
2023/09/01 04:45:14;;;;;;;1999.90;999.90;;;8.40;99.90;;;;;;5060049;28;20060;-70
2023/09/01 04:47:39;;;;;;;1999.90;999.90;;;8.30;99.90;;;;;;5048985;28;20037;-70
2023/09/01 04:50:05;;;;;;;1999.90;999.90;;;8.30;99.90;;;;;;5060637;28;20037;-69
2023/09/01 04:52:31;;;;;;;1999.90;999.90;;;8.30;99.90;;;;;;5053890;28;20108;-69
2023/09/01 04:54:57;;;;;;;1999.90;999.90;;;8.30;99.90;;;;;;5039804;28;20044;-70
2023/09/01 04:57:22;;;;;;;1999.90;999.90;;;8.30;99.90;;;;;;5048886;28;20452;-69
2023/09/01 04:59:48;;;;;;;1999.90;999.90;;;8.30;99.90;;;;;;5036090;28;20037;-69
2023/09/01 05:02:14;;;;;;;1999.90;999.90;;;8.30;99.90;;;;;;5050663;28;20053;-69
2023/09/01 05:04:40;;;;;;;1999.90;999.90;;;8.30;99.90;;;;;;5048611;28;20094;-69
2023/09/01 05:07:06;;;;;;;1999.90;999.90;;;8.30;99.90;;;;;;5054825;28;20463;-69
2023/09/01 05:09:31;;;;;;;1999.90;999.90;;;8.40;99.90;;;;;;5059764;28;20045;-69
2023/09/01 05:11:57;;;;;;;1999.90;999.90;;;8.40;99.90;;;;;;5060837;28;20044;-69
2023/09/01 05:14:22;;;;;;;1999.90;999.90;;;8.40;99.90;;;;;;5059459;28;20103;-69
2023/09/01 05:16:48;;;;;;;1999.90;999.90;;;8.40;99.90;;;;;;5025412;28;20094;-69
2023/09/01 05:19:15;;;;;;;1999.90;999.90;;;8.50;99.90;;;;;;5049024;28;20040;-69
2023/09/01 05:21:40;;;;;;;1999.90;999.90;;;8.50;99.90;;;;;;5067454;28;20119;-69
2023/09/01 05:24:06;;;;;;;1999.90;999.90;;;8.50;99.90;;;;;;5055458;28;20123;-69
2023/09/01 05:26:32;;;;;;;1999.90;999.90;;;8.60;99.90;;;;;;5049401;28;20040;-69
2023/09/01 05:28:57;;;;;;;1999.90;999.90;;;8.60;99.90;;;;;;5038784;28;20041;-69
2023/09/01 05:31:23;;;;;;;1999.90;999.90;;;8.60;99.90;;;;;;5066850;28;20048;-69
2023/09/01 05:33:48;;;;;;;1999.90;999.90;;;8.70;99.90;;;;;;5050770;28;20128;-69
2023/09/01 05:36:14;;;;;;;1999.90;999.90;;;8.70;99.90;;;;;;5040042;28;20083;-69
2023/09/01 05:38:40;;;;;;;1999.90;999.90;;;8.90;99.90;;;;;;5053367;28;20452;-69
2023/09/01 05:41:06;;;;;;;1999.90;999.90;;;9.00;99.90;;;;;;5049998;28;20064;-69
2023/09/01 05:43:32;;;;;;;1999.90;999.90;;;9.10;99.90;;;;;;5052372;28;20042;-70
2023/09/01 05:45:59;;;;;;;1999.90;999.90;;;9.20;99.90;;;;;;5050940;28;20095;-70
2023/09/01 05:48:25;;;;;;;1999.90;999.90;;;9.30;99.90;;;;;;5064269;28;20048;-70
2023/09/01 05:50:50;;;;;;;1999.90;999.90;;;9.50;99.90;;;;;;5058232;28;20037;-70
2023/09/01 05:53:16;;;;;;;1999.90;999.90;;;9.60;99.90;;;;;;5051047;28;20038;-70
2023/09/01 05:55:42;;;;;;;1999.90;999.90;;;9.70;99.90;;;;;;5065024;28;20048;-70
2023/09/01 05:58:07;;;;;;;1999.90;999.90;;;9.90;99.90;;;;;;5059364;28;20047;-70
2023/09/01 06:00:33;;;;;;;1999.90;999.90;;;10.00;99.90;;;;;;5050800;28;20036;-70
2023/09/01 06:02:59;;;;;;;1999.90;999.90;;;10.10;99.90;;;;;;5036104;28;20040;-70
2023/09/01 06:05:25;;;;;;;1999.90;999.90;;;10.20;99.90;;;;;;5052055;28;20417;-70
2023/09/01 06:07:51;;;;;;;1999.90;999.90;;;10.40;99.90;;;;;;5052715;28;20049;-70
2023/09/01 06:10:16;;;;;;;1999.90;999.90;;;10.50;99.90;;;;;;5031672;28;20687;-70
2023/09/01 06:12:42;;;;;;;1999.90;999.90;;;10.60;99.90;;;;;;5057890;28;20032;-70
2023/09/01 06:15:08;;;;;;;1999.90;999.90;;;10.80;99.90;;;;;;5050094;28;20091;-70
2023/09/01 06:17:37;;;;;;;1999.90;999.90;;;10.90;99.90;;;;;;5056036;28;20040;-70
2023/09/01 06:20:04;;;;;;;1999.90;999.90;;;11.00;99.90;;;;;;5052553;28;20356;-70
2023/09/01 06:22:30;;;;;;;1999.90;999.90;;;11.10;99.90;;;;;;5043580;28;20037;-70
2023/09/01 06:24:55;;;;;;;1999.90;999.90;;;11.20;99.90;;;;;;5043937;28;20063;-70
2023/09/01 06:27:21;;;;;;;1999.90;999.90;;;11.30;99.90;;;;;;5035392;28;20049;-70
2023/09/01 06:29:46;;;;;;;1999.90;999.90;;;11.40;99.90;;;;;;5034611;28;20060;-70
2023/09/01 06:32:13;;;;;;;1999.90;999.90;;;11.50;99.90;;;;;;5046428;28;20045;-70
2023/09/01 06:34:39;;;;;;;1999.90;999.90;;;11.60;99.90;;;;;;5063282;28;20032;-70
2023/09/01 06:37:05;;;;;;;1999.90;999.90;;;11.70;99.90;;;;;;5040879;28;20044;-70
2023/09/01 06:39:30;;;;;;;1999.90;999.90;;;11.90;99.90;;;;;;5061276;28;20124;-70
2023/09/01 06:41:57;;;;;;;1999.90;999.90;;;12.00;99.90;;;;;;5060777;28;20036;-70
2023/09/01 06:44:22;;;;;;;1999.90;999.90;;;12.20;99.90;;;;;;5045034;28;20838;-70
2023/09/01 06:46:48;;;;;;;1999.90;999.90;;;12.30;99.90;;;;;;5064731;28;20072;-70
2023/09/01 06:49:15;;;;;;;1999.90;999.90;;;12.40;99.90;;;;;;5053122;28;20079;-70
2023/09/01 06:51:41;;;;;;;1999.90;999.90;;;12.50;99.90;;;;;;5060235;28;20072;-70
2023/09/01 06:54:07;;;;;;;1999.90;999.90;;;12.70;99.90;;;;;;5058970;28;20065;-70
2023/09/01 06:56:32;;;;;;;1999.90;999.90;;;12.90;99.90;;;;;;5048295;28;20073;-70
2023/09/01 06:58:58;;;;;;;1999.90;999.90;;;13.10;99.90;;;;;;5046346;28;20043;-70
2023/09/01 07:01:24;;;;;;;1999.90;999.90;;;13.20;99.90;;;;;;5048585;28;20037;-70
2023/09/01 07:03:50;;;;;;;1999.90;999.90;;;13.30;99.90;;;;;;5025473;28;20093;-70
2023/09/01 07:06:16;;;;;;;1999.90;999.90;;;13.30;99.90;;;;;;5051281;28;20057;-70
2023/09/01 07:08:43;;;;;;;1999.90;999.90;;;13.40;99.90;;;;;;5044832;28;20045;-70
2023/09/01 07:11:10;;;;;;;1999.90;999.90;;;13.50;99.90;;;;;;5049547;28;20426;-70
2023/09/01 07:13:36;;;;;;;1999.90;999.90;;;13.70;99.90;;;;;;5045949;28;20068;-71
2023/09/01 07:16:03;;;;;;;1999.90;999.90;;;13.80;99.90;;;;;;5047165;28;20826;-70
2023/09/01 07:18:29;;;;;;;1999.90;999.90;;;13.90;99.90;;;;;;5050759;28;20041;-71
2023/09/01 07:20:59;;;;;;;1999.90;999.90;;;14.00;99.90;;;;;;5054664;28;20051;-70
2023/09/01 07:23:25;;;;;;;1999.90;999.90;;;14.10;99.90;;;;;;5056814;28;20041;-70
2023/09/01 07:25:55;;;;;;;1999.90;999.90;;;14.20;99.90;;;;;;5042679;28;20049;-70
2023/09/01 07:28:21;;;;;;;1999.90;999.90;;;14.30;99.90;;;;;;5050081;28;20450;-71
2023/09/01 07:30:47;;;;;;;1999.90;999.90;;;14.50;99.90;;;;;;5043919;28;20594;-70
2023/09/01 07:33:12;;;;;;;1999.90;999.90;;;14.70;99.90;;;;;;5036906;28;20045;-70
2023/09/01 07:35:43;;;;;;;1999.90;999.90;;;14.80;99.90;;;;;;5058037;28;20528;-71
2023/09/01 07:38:09;;;;;;;1999.90;999.90;;;15.00;99.90;;;;;;5061271;28;20047;-70
2023/09/01 07:40:35;;;;;;;1999.90;999.90;;;15.10;99.90;;;;;;5048366;28;20682;-71
2023/09/01 07:43:00;;;;;;;1999.90;999.90;;;15.30;99.90;;;;;;5051063;28;20056;-71
2023/09/01 07:45:29;;;;;;;1999.90;999.90;;;15.40;99.90;;;;;;5044883;28;20044;-71
2023/09/01 07:47:55;;;;;;;1999.90;999.90;;;15.50;99.90;;;;;;5059703;28;20673;-71
2023/09/01 07:50:23;;;;;;;1999.90;999.90;;;15.60;99.90;;;;;;5050684;28;20052;-71
2023/09/01 07:52:51;;;;;;;1999.90;999.90;;;15.80;99.90;;;;;;5037138;28;20037;-71
2023/09/01 07:55:17;;;;;;;1999.90;999.90;;;15.90;99.90;;;;;;5030831;28;20040;-71
2023/09/01 07:57:42;;;;;;;1999.90;999.90;;;16.00;99.90;;;;;;5053878;28;20036;-71
2023/09/01 08:00:08;;;;;;;1999.90;999.90;;;16.10;99.90;;;;;;5029072;28;20037;-71
2023/09/01 08:02:34;;;;;;;1999.90;999.90;;;16.30;99.90;;;;;;5047765;28;20040;-71
2023/09/01 08:05:03;;;;;;;1999.90;999.90;;;16.40;99.90;;;;;;5044396;28;20519;-71
2023/09/01 08:07:30;;;;;;;1999.90;999.90;;;16.60;99.90;;;;;;5033622;28;20697;-71
2023/09/01 08:09:56;;;;;;;1999.90;999.90;;;16.70;99.90;;;;;;5065481;28;20457;-71
2023/09/01 08:12:21;;;;;;;748.95;487.58;;;16.90;99.90;;;;;;5063942;28;20037;-71
2023/09/01 08:14:47;;;;;;;1999.90;999.90;;;17.00;99.90;;;;;;5036085;28;20049;-71
2023/09/01 08:17:13;;;;;;;1999.90;999.90;;;17.20;99.90;;;;;;5038000;28;20044;-71
2023/09/01 08:19:40;;;;;;;1999.90;999.90;;;17.20;99.90;;;;;;5039047;28;20564;-71
2023/09/01 08:22:06;;;;;;;1999.90;999.90;;;17.30;99.90;;;;;;5051628;28;20075;-71
2023/09/01 08:24:32;;;;;;;1999.90;999.90;;;17.40;99.90;;;;;;5031294;28;20087;-71
2023/09/01 08:26:57;;;;;;;191.55;183.55;;;17.50;99.90;;;;;;5053196;28;20476;-72
2023/09/01 08:29:23;;;;;;;285.52;273.25;;;17.60;99.90;;;;;;5051908;28;20037;-72
2023/09/01 08:31:48;;;;;;;763.90;502.02;;;17.70;99.90;;;;;;5062846;28;20181;-72
2023/09/01 08:34:14;;;;;;;319.23;305.27;;;17.90;99.90;;;;;;5068164;28;20075;-71
2023/09/01 08:36:40;;;;;;;293.67;281.10;;;18.00;99.90;;;;;;5036354;28;20036;-71
2023/09/01 08:39:07;;;;;;;278.63;267.00;;;18.00;99.90;;;;;;5054977;28;20093;-71
2023/09/01 08:41:33;;;;;;;390.95;372.40;;;18.10;99.90;;;;;;5059845;28;20127;-71
2023/09/01 08:44:04;;;;;;;366.60;349.58;;;18.10;99.90;;;;;;5057892;28;20083;-71
2023/09/01 08:46:33;;;;;;;364.35;347.88;;;18.10;99.90;;;;;;5028990;28;20375;-71
2023/09/01 08:48:59;;;;;;;236.07;226.15;;;18.20;99.90;;;;;;5061507;28;20477;-71
2023/09/01 08:51:25;;;;;;;284.85;272.58;;;18.20;99.90;;;;;;5050069;28;20036;-71
2023/09/01 08:53:51;;;;;;;335.33;320.35;;;18.20;99.90;;;;;;5031629;28;20415;-72
2023/09/01 08:56:17;;;;;;;323.90;309.52;;;18.30;99.90;;;;;;5048669;28;20041;-71
2023/09/01 08:58:44;;;;;;;368.00;351.23;;;18.50;99.90;;;;;;5046698;28;21155;-71
2023/09/01 09:01:10;;;;;;;474.60;451.52;;;18.60;99.90;;;;;;5038040;28;20088;-71
2023/09/01 09:03:36;;;;;;;486.88;462.92;;;18.60;99.90;;;;;;5053187;28;20063;-71
2023/09/01 09:06:03;;;;;;;453.85;431.60;;;18.70;99.90;;;;;;5048423;28;20053;-71
2023/09/01 09:08:29;;;;;;;538.58;511.27;;;18.70;99.90;;;;;;5032672;28;20049;-71
2023/09/01 09:10:55;;;;;;;547.25;518.25;;;18.70;99.90;;;;;;5031917;28;20041;-71
2023/09/01 09:13:29;;;;;;;426.48;405.60;;;18.80;99.90;;;;;;5056622;28;20025;-71
2023/09/01 09:16:12;;;;;;;604.85;570.70;;;18.90;99.90;;;;;;5034392;28;20040;-69
2023/09/01 09:18:44;;;;;;;547.50;518.42;;;18.90;99.90;;;;;;5040177;28;20127;-71
2023/09/01 09:21:26;;;;;;;513.33;486.58;;;18.80;99.90;;;;;;5041012;28;20045;-70
2023/09/01 09:23:53;;;;;;;503.35;476.77;;;18.70;99.90;;;;;;5042584;28;20071;-71
2023/09/01 09:26:30;;;;;;;502.63;476.75;;;18.70;99.90;;;;;;5045513;28;20068;-70
2023/09/01 09:29:08;;;;;;;498.67;473.27;;;18.70;99.90;;;;;;5023061;28;20139;-71
2023/09/01 09:31:44;;;;;;;403.50;384.42;;;18.80;99.90;;;;;;5022837;28;20042;-70
2023/09/01 09:34:20;;;;;;;475.42;451.23;;;18.80;99.90;;;;;;5043985;28;20418;-70
2023/09/01 09:36:47;;;;;;;439.95;417.90;;;18.90;99.90;;;;;;5045436;28;20040;-71
2023/09/01 09:39:24;;;;;;;500.42;474.80;;;19.00;99.90;;;;;;5046971;28;20390;-71
2023/09/01 09:41:50;;;;;;;568.65;537.45;;;19.10;99.90;;;;;;5060626;28;20049;-71
2023/09/01 09:44:27;;;;;;;473.08;449.55;;;19.20;99.90;;;;;;5041736;28;20137;-71
2023/09/01 09:46:54;;;;;;;608.38;574.17;;;19.20;99.90;;;;;;5028685;28;20049;-71
2023/09/01 09:49:21;;;;;;;504.17;478.10;;;19.20;99.90;;;;;;5045939;28;20397;-71
2023/09/01 09:51:51;;;;;;;328.15;313.40;;;19.20;99.90;;;;;;5043475;28;20092;-71
2023/09/01 09:54:21;;;;;;;578.40;546.58;;;19.20;99.90;;;;;;5040376;28;20124;-72
2023/09/01 09:56:49;;;;;;;564.45;533.80;;;19.20;99.90;;;;;;5040235;28;20115;-71
2023/09/01 09:59:37;;;;;;;347.73;331.77;;;19.20;99.90;;;;;;5043444;28;20052;-71
2023/09/01 10:02:15;;;;;;;333.90;318.50;;;19.30;99.90;;;;;;5025898;28;20053;-71
2023/09/01 10:04:41;;;;;;;341.48;325.77;;;19.20;99.90;;;;;;5045042;28;20140;-70
2023/09/01 10:07:07;;;;;;;487.83;462.67;;;19.10;99.90;;;;;;5044205;28;20166;-71
2023/09/01 10:09:32;;;;;;;341.85;325.58;;;19.10;99.90;;;;;;5042901;28;20706;-71
2023/09/01 10:11:59;;;;;;;438.77;416.52;;;19.20;99.90;;;;;;5043345;28;20047;-71
2023/09/01 10:14:26;;;;;;;438.90;417.08;;;19.20;99.90;;;;;;5040231;28;20069;-71
2023/09/01 10:16:52;;;;;;;432.85;410.98;;;19.30;99.90;;;;;;5040646;28;20851;-71
2023/09/01 10:19:21;;;;;;;459.73;435.67;;;19.40;99.90;;;;;;5040116;28;20120;-71
2023/09/01 10:21:46;;;;;;;485.70;459.35;;;19.50;99.90;;;;;;5041165;28;20051;-70
2023/09/01 10:24:16;;;;;;;465.95;442.08;;;19.70;99.90;;;;;;5040144;28;20045;-70
2023/09/01 10:26:43;;;;;;;544.65;515.30;;;20.00;99.90;;;;;;5038863;28;20144;-70
2023/09/01 10:29:10;;;;;;;585.03;552.38;;;20.40;99.90;;;;;;5037619;28;20040;-71
2023/09/01 10:31:36;;;;;;;325.45;310.42;;;20.70;99.90;;;;;;5033139;28;20041;-70
2023/09/01 10:34:15;;;;;;;443.75;421.25;;;21.00;99.90;;;;;;5052966;28;20682;-71
2023/09/01 10:36:43;;;;;;;411.33;391.58;;;21.10;99.90;;;;;;5043530;28;20091;-71
2023/09/01 10:39:24;;;;;;;283.77;271.27;;;21.10;99.90;;;;;;5059080;28;20484;-71
2023/09/01 10:41:53;;;;;;;362.73;345.83;;;21.10;99.90;;;;;;5039412;28;20103;-71
2023/09/01 10:44:21;;;;;;;545.97;516.42;;;21.00;99.90;;;;;;5042469;28;20073;-71
2023/09/01 10:46:47;;;;;;;246.43;235.73;;;21.30;99.90;;;;;;5052053;28;20446;-71
2023/09/01 10:49:14;;;;;;;274.90;262.92;;;21.40;99.90;;;;;;5046344;28;20060;-71
2023/09/01 10:51:40;;;;;;;235.70;225.73;;;21.60;99.90;;;;;;5046151;28;20043;-71
2023/09/01 10:54:14;;;;;;;205.15;196.18;;;21.70;99.90;;;;;;5060249;28;20045;-71
2023/09/01 10:56:57;;;;;;;164.30;157.30;;;21.80;99.90;;;;;;5041517;28;20397;-71
2023/09/01 10:59:36;;;;;;;314.75;300.45;;;21.70;99.90;;;;;;5040137;28;20048;-71
2023/09/01 11:02:25;;;;;;;301.17;287.60;;;21.70;99.90;;;;;;5036065;28;20047;-71
2023/09/01 11:04:51;;;;;;;265.30;253.60;;;21.80;99.90;;;;;;5042173;28;20118;-71
2023/09/01 11:07:17;;;;;;;194.05;185.73;;;22.10;99.90;;;;;;5023062;28;20507;-71
2023/09/01 11:09:56;;;;;;;191.48;183.02;;;22.50;99.90;;;;;;5026641;28;20037;-71
2023/09/01 11:12:29;;;;;;;355.27;338.23;;;22.80;99.90;;;;;;5055677;28;20080;-71
2023/09/01 11:15:00;;;;;;;151.23;144.75;;;23.00;99.90;;;;;;5051853;28;20148;-71
2023/09/01 11:17:47;;;;;;;123.47;118.18;;;23.20;99.90;;;;;;5039469;28;20056;-71
2023/09/01 11:20:18;;;;;;;121.78;116.45;;;23.30;99.90;;;;;;5040467;28;20053;-71
2023/09/01 11:22:44;;;;;;;91.95;87.82;;;23.10;99.90;;;;;;5029781;28;20071;-71
2023/09/01 11:25:13;;;;;;;103.03;98.53;;;22.90;99.90;;;;;;5059418;28;20086;-71
2023/09/01 11:27:48;;;;;;;122.45;117.22;;;22.60;99.90;;;;;;5044698;28;20048;-71
2023/09/01 11:30:17;;;;;;;129.50;123.75;;;22.60;99.90;;;;;;5045639;28;20505;-71
2023/09/01 11:32:43;;;;;;;224.48;214.77;;;22.60;99.90;;;;;;5038363;28;20859;-71
2023/09/01 11:35:23;;;;;;;186.23;178.13;;;22.70;99.90;;;;;;5052589;28;20036;-71
2023/09/01 11:37:48;;;;;;;96.47;92.30;;;22.80;99.90;;;;;;5057849;28;20033;-71
2023/09/01 11:40:14;;;;;;;235.82;225.05;;;22.70;99.90;;;;;;5066143;28;20049;-71
2023/09/01 11:42:42;;;;;;;171.63;163.90;;;22.70;99.90;;;;;;5043534;28;20052;-71
2023/09/01 11:45:10;;;;;;;73.80;70.35;;;22.70;99.90;;;;;;5052736;28;20051;-71
2023/09/01 11:47:36;;;;;;;92.18;87.93;;;22.80;99.90;;;;;;5031224;28;20053;-71
2023/09/01 11:50:03;;;;;;;165.80;158.52;;;22.70;99.90;;;;;;5047194;28;20045;-71
2023/09/01 11:52:28;;;;;;;87.78;83.80;;;22.80;99.90;;;;;;5033905;28;20501;-71
2023/09/01 11:54:55;;;;;;;208.30;199.00;;;22.80;99.90;;;;;;5042343;28;20123;-71
2023/09/01 11:57:21;;;;;;;189.88;181.32;;;23.00;99.90;;;;;;5041724;28;20044;-71
2023/09/01 11:59:48;;;;;;;235.88;224.85;;;23.20;99.90;;;;;;5046169;28;20535;-71
2023/09/01 12:02:15;;;;;;;157.75;150.65;;;23.30;99.90;;;;;;5052914;28;20050;-71
2023/09/01 12:04:45;;;;;;;195.35;186.40;;;23.40;99.90;;;;;;5028732;28;20060;-71
2023/09/01 12:07:25;;;;;;;205.38;196.20;;;23.60;99.90;;;;;;5038357;28;20081;-71
2023/09/01 12:09:52;;;;;;;152.25;145.50;;;23.70;99.90;;;;;;5037458;28;20037;-72